sensor_id;sensor_type;location;lat;lon;timestamp;P1;durP1;ratioP1;P2;durP2;ratioP2
12950;SDS011;6540;50.858;7.232;2023-02-01T00:01:50;17.03;;;9.07;;
12950;SDS011;6540;50.858;7.232;2023-02-01T00:04:15;19.40;;;8.37;;
12950;SDS011;6540;50.858;7.232;2023-02-01T00:06:41;19.30;;;8.87;;
12950;SDS011;6540;50.858;7.232;2023-02-01T00:09:06;16.67;;;9.63;;
12950;SDS011;6540;50.858;7.232;2023-02-01T00:11:32;15.03;;;8.37;;
12950;SDS011;6540;50.858;7.232;2023-02-01T00:13:58;18.07;;;9.50;;
12950;SDS011;6540;50.858;7.232;2023-02-01T00:16:25;16.43;;;8.37;;
12950;SDS011;6540;50.858;7.232;2023-02-01T00:18:56;16.03;;;7.77;;
12950;SDS011;6540;50.858;7.232;2023-02-01T00:21:26;16.53;;;8.07;;
12950;SDS011;6540;50.858;7.232;2023-02-01T00:23:52;14.77;;;8.07;;
12950;SDS011;6540;50.858;7.232;2023-02-01T00:26:19;16.10;;;7.40;;
12950;SDS011;6540;50.858;7.232;2023-02-01T00:28:50;14.07;;;7.10;;
12950;SDS011;6540;50.858;7.232;2023-02-01T00:31:15;12.60;;;8.03;;
12950;SDS011;6540;50.858;7.232;2023-02-01T00:33:41;16.07;;;7.73;;
12950;SDS011;6540;50.858;7.232;2023-02-01T00:36:07;12.80;;;6.90;;
12950;SDS011;6540;50.858;7.232;2023-02-01T00:38:36;12.17;;;7.90;;
12950;SDS011;6540;50.858;7.232;2023-02-01T00:41:06;14.03;;;6.57;;
12950;SDS011;6540;50.858;7.232;2023-02-01T00:43:34;13.37;;;6.70;;
12950;SDS011;6540;50.858;7.232;2023-02-01T00:46:00;9.20;;;7.03;;
12950;SDS011;6540;50.858;7.232;2023-02-01T00:48:26;13.87;;;7.70;;
12950;SDS011;6540;50.858;7.232;2023-02-01T00:50:51;13.90;;;7.13;;
12950;SDS011;6540;50.858;7.232;2023-02-01T00:53:17;10.90;;;6.73;;
12950;SDS011;6540;50.858;7.232;2023-02-01T00:55:46;14.67;;;6.87;;
12950;SDS011;6540;50.858;7.232;2023-02-01T00:58:12;12.33;;;6.90;;
12950;SDS011;6540;50.858;7.232;2023-02-01T01:00:37;16.30;;;7.00;;
12950;SDS011;6540;50.858;7.232;2023-02-01T01:03:03;15.53;;;7.10;;
12950;SDS011;6540;50.858;7.232;2023-02-01T01:05:42;9.97;;;6.80;;
12950;SDS011;6540;50.858;7.232;2023-02-01T01:08:09;17.60;;;7.27;;
12950;SDS011;6540;50.858;7.232;2023-02-01T01:10:34;13.53;;;8.03;;
12950;SDS011;6540;50.858;7.232;2023-02-01T01:12:59;11.63;;;6.60;;
12950;SDS011;6540;50.858;7.232;2023-02-01T01:15:25;18.43;;;6.43;;
12950;SDS011;6540;50.858;7.232;2023-02-01T01:17:50;9.73;;;5.93;;
12950;SDS011;6540;50.858;7.232;2023-02-01T01:20:15;15.20;;;5.60;;
12950;SDS011;6540;50.858;7.232;2023-02-01T01:22:41;16.43;;;6.53;;
12950;SDS011;6540;50.858;7.232;2023-02-01T01:25:06;11.00;;;6.13;;
12950;SDS011;6540;50.858;7.232;2023-02-01T01:27:32;13.47;;;5.30;;
12950;SDS011;6540;50.858;7.232;2023-02-01T01:29:57;11.13;;;5.23;;
12950;SDS011;6540;50.858;7.232;2023-02-01T01:32:22;12.80;;;5.70;;
12950;SDS011;6540;50.858;7.232;2023-02-01T01:34:48;16.13;;;5.13;;
12950;SDS011;6540;50.858;7.232;2023-02-01T01:37:13;10.70;;;4.80;;
12950;SDS011;6540;50.858;7.232;2023-02-01T01:39:38;11.27;;;5.07;;
12950;SDS011;6540;50.858;7.232;2023-02-01T01:42:04;10.40;;;5.60;;
12950;SDS011;6540;50.858;7.232;2023-02-01T01:47:23;10.53;;;4.33;;
12950;SDS011;6540;50.858;7.232;2023-02-01T01:49:50;10.70;;;4.60;;
12950;SDS011;6540;50.858;7.232;2023-02-01T01:52:15;6.80;;;3.60;;
12950;SDS011;6540;50.858;7.232;2023-02-01T01:54:43;8.20;;;3.17;;
12950;SDS011;6540;50.858;7.232;2023-02-01T01:57:21;10.77;;;3.13;;
12950;SDS011;6540;50.858;7.232;2023-02-01T02:00:00;11.73;;;3.00;;
12950;SDS011;6540;50.858;7.232;2023-02-01T02:02:38;9.20;;;3.50;;
12950;SDS011;6540;50.858;7.232;2023-02-01T02:05:05;9.97;;;3.43;;
12950;SDS011;6540;50.858;7.232;2023-02-01T02:07:35;8.60;;;3.50;;
12950;SDS011;6540;50.858;7.232;2023-02-01T02:10:05;8.90;;;2.87;;
12950;SDS011;6540;50.858;7.232;2023-02-01T02:12:33;10.03;;;3.53;;
12950;SDS011;6540;50.858;7.232;2023-02-01T02:14:58;5.07;;;2.60;;
12950;SDS011;6540;50.858;7.232;2023-02-01T02:20:09;10.53;;;3.30;;
12950;SDS011;6540;50.858;7.232;2023-02-01T02:33:53;11.53;;;3.70;;
12950;SDS011;6540;50.858;7.232;2023-02-01T02:39:08;9.47;;;3.80;;
12950;SDS011;6540;50.858;7.232;2023-02-01T02:45:09;7.80;;;3.47;;
12950;SDS011;6540;50.858;7.232;2023-02-01T02:50:45;8.17;;;3.03;;
12950;SDS011;6540;50.858;7.232;2023-02-01T02:53:40;10.83;;;4.40;;
12950;SDS011;6540;50.858;7.232;2023-02-01T02:56:53;12.73;;;4.27;;
12950;SDS011;6540;50.858;7.232;2023-02-01T02:59:40;14.43;;;4.23;;
12950;SDS011;6540;50.858;7.232;2023-02-01T03:02:26;14.87;;;3.93;;
12950;SDS011;6540;50.858;7.232;2023-02-01T03:05:11;5.60;;;3.23;;
12950;SDS011;6540;50.858;7.232;2023-02-01T03:13:13;12.53;;;4.57;;
12950;SDS011;6540;50.858;7.232;2023-02-01T03:21:02;14.30;;;3.90;;
12950;SDS011;6540;50.858;7.232;2023-02-01T03:23:33;14.93;;;5.10;;
12950;SDS011;6540;50.858;7.232;2023-02-01T03:26:01;9.33;;;4.07;;
12950;SDS011;6540;50.858;7.232;2023-02-01T03:28:29;5.10;;;3.57;;
12950;SDS011;6540;50.858;7.232;2023-02-01T03:30:58;7.20;;;3.37;;
12950;SDS011;6540;50.858;7.232;2023-02-01T03:33:25;11.37;;;4.20;;
12950;SDS011;6540;50.858;7.232;2023-02-01T03:38:30;11.60;;;4.00;;
12950;SDS011;6540;50.858;7.232;2023-02-01T03:43:58;9.80;;;4.27;;
12950;SDS011;6540;50.858;7.232;2023-02-01T03:46:40;12.63;;;4.50;;
12950;SDS011;6540;50.858;7.232;2023-02-01T03:49:11;10.23;;;4.23;;
12950;SDS011;6540;50.858;7.232;2023-02-01T03:51:42;10.70;;;3.93;;
12950;SDS011;6540;50.858;7.232;2023-02-01T03:54:09;10.90;;;4.13;;
12950;SDS011;6540;50.858;7.232;2023-02-01T03:56:38;7.33;;;3.80;;
12950;SDS011;6540;50.858;7.232;2023-02-01T03:59:09;11.33;;;4.50;;
12950;SDS011;6540;50.858;7.232;2023-02-01T04:01:35;13.77;;;3.90;;
12950;SDS011;6540;50.858;7.232;2023-02-01T04:04:00;12.53;;;3.77;;
12950;SDS011;6540;50.858;7.232;2023-02-01T04:06:26;8.57;;;3.63;;
12950;SDS011;6540;50.858;7.232;2023-02-01T04:08:51;8.23;;;4.43;;
12950;SDS011;6540;50.858;7.232;2023-02-01T04:11:16;10.13;;;4.60;;
12950;SDS011;6540;50.858;7.232;2023-02-01T04:13:42;11.53;;;4.10;;
12950;SDS011;6540;50.858;7.232;2023-02-01T04:16:07;8.30;;;3.17;;
12950;SDS011;6540;50.858;7.232;2023-02-01T04:18:33;11.50;;;3.83;;
12950;SDS011;6540;50.858;7.232;2023-02-01T04:20:59;8.70;;;4.17;;
12950;SDS011;6540;50.858;7.232;2023-02-01T04:23:26;10.33;;;3.47;;
12950;SDS011;6540;50.858;7.232;2023-02-01T04:25:52;11.50;;;3.70;;
12950;SDS011;6540;50.858;7.232;2023-02-01T04:28:17;12.83;;;4.33;;
12950;SDS011;6540;50.858;7.232;2023-02-01T04:30:43;14.57;;;4.03;;
12950;SDS011;6540;50.858;7.232;2023-02-01T04:33:10;13.57;;;4.27;;
12950;SDS011;6540;50.858;7.232;2023-02-01T04:35:38;12.03;;;3.33;;
12950;SDS011;6540;50.858;7.232;2023-02-01T04:38:04;8.60;;;3.73;;
12950;SDS011;6540;50.858;7.232;2023-02-01T04:40:29;8.93;;;3.30;;
12950;SDS011;6540;50.858;7.232;2023-02-01T04:42:55;7.30;;;3.57;;
12950;SDS011;6540;50.858;7.232;2023-02-01T04:45:20;8.63;;;3.30;;
12950;SDS011;6540;50.858;7.232;2023-02-01T04:47:45;11.80;;;3.77;;
12950;SDS011;6540;50.858;7.232;2023-02-01T04:50:12;14.17;;;3.67;;
12950;SDS011;6540;50.858;7.232;2023-02-01T04:52:38;13.07;;;3.67;;
12950;SDS011;6540;50.858;7.232;2023-02-01T04:55:03;9.23;;;3.60;;
12950;SDS011;6540;50.858;7.232;2023-02-01T04:57:29;9.93;;;4.50;;
12950;SDS011;6540;50.858;7.232;2023-02-01T04:59:55;12.87;;;4.57;;
12950;SDS011;6540;50.858;7.232;2023-02-01T05:02:20;10.17;;;4.00;;
12950;SDS011;6540;50.858;7.232;2023-02-01T05:04:48;9.43;;;4.50;;
12950;SDS011;6540;50.858;7.232;2023-02-01T05:07:14;8.93;;;3.33;;
12950;SDS011;6540;50.858;7.232;2023-02-01T05:09:40;13.63;;;4.40;;
12950;SDS011;6540;50.858;7.232;2023-02-01T05:12:05;9.20;;;4.10;;
12950;SDS011;6540;50.858;7.232;2023-02-01T05:14:49;15.70;;;4.07;;
12950;SDS011;6540;50.858;7.232;2023-02-01T05:17:14;7.70;;;3.87;;
12950;SDS011;6540;50.858;7.232;2023-02-01T05:19:40;11.30;;;4.30;;
12950;SDS011;6540;50.858;7.232;2023-02-01T05:22:05;9.03;;;4.20;;
12950;SDS011;6540;50.858;7.232;2023-02-01T05:24:30;11.57;;;3.70;;
12950;SDS011;6540;50.858;7.232;2023-02-01T05:26:56;7.83;;;4.23;;
12950;SDS011;6540;50.858;7.232;2023-02-01T05:29:21;12.57;;;4.30;;
12950;SDS011;6540;50.858;7.232;2023-02-01T05:31:47;10.73;;;4.67;;
12950;SDS011;6540;50.858;7.232;2023-02-01T05:34:13;9.30;;;4.00;;
12950;SDS011;6540;50.858;7.232;2023-02-01T05:36:39;10.93;;;3.77;;
12950;SDS011;6540;50.858;7.232;2023-02-01T05:39:04;12.23;;;4.10;;
12950;SDS011;6540;50.858;7.232;2023-02-01T05:41:30;6.87;;;3.33;;
12950;SDS011;6540;50.858;7.232;2023-02-01T05:43:55;14.00;;;4.03;;
12950;SDS011;6540;50.858;7.232;2023-02-01T05:46:20;9.93;;;4.30;;
12950;SDS011;6540;50.858;7.232;2023-02-01T05:48:46;5.63;;;3.00;;
12950;SDS011;6540;50.858;7.232;2023-02-01T05:51:11;13.87;;;2.70;;
12950;SDS011;6540;50.858;7.232;2023-02-01T05:53:37;10.00;;;3.47;;
12950;SDS011;6540;50.858;7.232;2023-02-01T05:56:03;9.97;;;3.93;;
12950;SDS011;6540;50.858;7.232;2023-02-01T05:58:29;10.00;;;3.90;;
12950;SDS011;6540;50.858;7.232;2023-02-01T06:00:55;6.57;;;3.27;;
12950;SDS011;6540;50.858;7.232;2023-02-01T06:03:20;20.53;;;3.83;;
12950;SDS011;6540;50.858;7.232;2023-02-01T06:05:46;8.33;;;3.57;;
12950;SDS011;6540;50.858;7.232;2023-02-01T06:08:15;7.57;;;2.93;;
12950;SDS011;6540;50.858;7.232;2023-02-01T06:10:42;9.13;;;3.20;;
12950;SDS011;6540;50.858;7.232;2023-02-01T06:13:08;7.87;;;3.20;;
12950;SDS011;6540;50.858;7.232;2023-02-01T06:15:34;13.63;;;3.40;;
12950;SDS011;6540;50.858;7.232;2023-02-01T06:17:59;11.50;;;3.17;;
12950;SDS011;6540;50.858;7.232;2023-02-01T06:20:24;7.73;;;3.00;;
12950;SDS011;6540;50.858;7.232;2023-02-01T06:22:50;13.73;;;3.47;;
12950;SDS011;6540;50.858;7.232;2023-02-01T06:25:17;9.40;;;2.97;;
12950;SDS011;6540;50.858;7.232;2023-02-01T06:27:44;10.63;;;3.60;;
12950;SDS011;6540;50.858;7.232;2023-02-01T06:30:10;10.07;;;3.23;;
12950;SDS011;6540;50.858;7.232;2023-02-01T06:32:38;9.40;;;3.47;;
12950;SDS011;6540;50.858;7.232;2023-02-01T06:35:04;6.30;;;2.70;;
12950;SDS011;6540;50.858;7.232;2023-02-01T06:37:30;12.43;;;3.40;;
12950;SDS011;6540;50.858;7.232;2023-02-01T06:39:56;7.87;;;3.00;;
12950;SDS011;6540;50.858;7.232;2023-02-01T06:42:21;13.40;;;3.37;;
12950;SDS011;6540;50.858;7.232;2023-02-01T06:44:46;12.53;;;2.73;;
12950;SDS011;6540;50.858;7.232;2023-02-01T06:47:12;11.53;;;3.43;;
12950;SDS011;6540;50.858;7.232;2023-02-01T06:49:37;17.77;;;3.00;;
12950;SDS011;6540;50.858;7.232;2023-02-01T06:52:02;20.07;;;3.77;;
12950;SDS011;6540;50.858;7.232;2023-02-01T06:54:28;8.77;;;2.97;;
12950;SDS011;6540;50.858;7.232;2023-02-01T06:56:57;12.70;;;3.53;;
12950;SDS011;6540;50.858;7.232;2023-02-01T06:59:22;10.23;;;3.13;;
12950;SDS011;6540;50.858;7.232;2023-02-01T07:01:48;6.73;;;3.73;;
12950;SDS011;6540;50.858;7.232;2023-02-01T07:04:13;11.90;;;3.20;;
12950;SDS011;6540;50.858;7.232;2023-02-01T07:06:39;11.30;;;3.07;;
12950;SDS011;6540;50.858;7.232;2023-02-01T07:09:05;7.83;;;2.60;;
12950;SDS011;6540;50.858;7.232;2023-02-01T07:11:31;9.77;;;3.23;;
12950;SDS011;6540;50.858;7.232;2023-02-01T07:13:57;12.63;;;2.97;;
12950;SDS011;6540;50.858;7.232;2023-02-01T07:16:22;13.07;;;4.13;;
12950;SDS011;6540;50.858;7.232;2023-02-01T07:18:49;7.47;;;3.23;;
12950;SDS011;6540;50.858;7.232;2023-02-01T07:21:15;8.47;;;3.53;;
12950;SDS011;6540;50.858;7.232;2023-02-01T07:23:41;14.90;;;3.40;;
12950;SDS011;6540;50.858;7.232;2023-02-01T07:26:06;11.77;;;2.93;;
12950;SDS011;6540;50.858;7.232;2023-02-01T07:28:34;11.00;;;2.90;;
12950;SDS011;6540;50.858;7.232;2023-02-01T07:31:14;7.37;;;2.80;;
12950;SDS011;6540;50.858;7.232;2023-02-01T07:33:42;14.87;;;3.70;;
12950;SDS011;6540;50.858;7.232;2023-02-01T07:36:10;14.30;;;3.47;;
12950;SDS011;6540;50.858;7.232;2023-02-01T07:38:38;7.60;;;3.20;;
12950;SDS011;6540;50.858;7.232;2023-02-01T07:41:04;6.77;;;3.50;;
12950;SDS011;6540;50.858;7.232;2023-02-01T07:43:30;11.67;;;3.77;;
12950;SDS011;6540;50.858;7.232;2023-02-01T07:45:58;8.30;;;3.27;;
12950;SDS011;6540;50.858;7.232;2023-02-01T07:48:23;8.77;;;2.97;;
12950;SDS011;6540;50.858;7.232;2023-02-01T07:50:57;14.73;;;3.40;;
12950;SDS011;6540;50.858;7.232;2023-02-01T07:53:23;7.43;;;2.63;;
12950;SDS011;6540;50.858;7.232;2023-02-01T07:55:48;13.23;;;3.33;;
12950;SDS011;6540;50.858;7.232;2023-02-01T07:58:14;10.90;;;2.77;;
12950;SDS011;6540;50.858;7.232;2023-02-01T08:00:39;14.13;;;3.60;;
12950;SDS011;6540;50.858;7.232;2023-02-01T08:03:23;8.10;;;2.57;;
12950;SDS011;6540;50.858;7.232;2023-02-01T08:05:53;7.37;;;2.80;;
12950;SDS011;6540;50.858;7.232;2023-02-01T08:08:19;17.30;;;3.53;;
12950;SDS011;6540;50.858;7.232;2023-02-01T08:10:44;17.10;;;3.23;;
12950;SDS011;6540;50.858;7.232;2023-02-01T08:13:10;9.67;;;3.10;;
12950;SDS011;6540;50.858;7.232;2023-02-01T08:15:35;11.83;;;3.57;;
12950;SDS011;6540;50.858;7.232;2023-02-01T08:18:00;17.83;;;3.70;;
12950;SDS011;6540;50.858;7.232;2023-02-01T08:20:27;14.47;;;3.43;;
12950;SDS011;6540;50.858;7.232;2023-02-01T08:22:53;12.50;;;3.50;;
12950;SDS011;6540;50.858;7.232;2023-02-01T08:25:19;8.40;;;3.17;;
12950;SDS011;6540;50.858;7.232;2023-02-01T08:27:44;13.57;;;3.40;;
12950;SDS011;6540;50.858;7.232;2023-02-01T08:30:10;8.93;;;3.73;;
12950;SDS011;6540;50.858;7.232;2023-02-01T08:32:36;8.33;;;3.27;;
12950;SDS011;6540;50.858;7.232;2023-02-01T08:35:02;14.27;;;3.07;;
12950;SDS011;6540;50.858;7.232;2023-02-01T08:37:29;12.33;;;3.07;;
12950;SDS011;6540;50.858;7.232;2023-02-01T08:39:54;9.83;;;3.63;;
12950;SDS011;6540;50.858;7.232;2023-02-01T08:42:20;11.80;;;3.07;;
12950;SDS011;6540;50.858;7.232;2023-02-01T08:45:04;9.43;;;3.27;;
12950;SDS011;6540;50.858;7.232;2023-02-01T08:47:32;8.30;;;3.10;;
12950;SDS011;6540;50.858;7.232;2023-02-01T08:49:58;9.50;;;2.43;;
12950;SDS011;6540;50.858;7.232;2023-02-01T08:52:24;7.13;;;3.43;;
12950;SDS011;6540;50.858;7.232;2023-02-01T08:54:49;9.17;;;3.93;;
12950;SDS011;6540;50.858;7.232;2023-02-01T08:57:14;13.23;;;3.03;;
12950;SDS011;6540;50.858;7.232;2023-02-01T08:59:40;11.23;;;3.47;;
12950;SDS011;6540;50.858;7.232;2023-02-01T09:02:05;13.20;;;3.93;;
12950;SDS011;6540;50.858;7.232;2023-02-01T09:04:33;8.43;;;2.67;;
12950;SDS011;6540;50.858;7.232;2023-02-01T09:06:58;7.73;;;3.03;;
12950;SDS011;6540;50.858;7.232;2023-02-01T09:09:23;10.17;;;3.27;;
12950;SDS011;6540;50.858;7.232;2023-02-01T09:11:49;7.37;;;3.63;;
12950;SDS011;6540;50.858;7.232;2023-02-01T09:14:17;12.40;;;3.80;;
12950;SDS011;6540;50.858;7.232;2023-02-01T09:16:43;9.43;;;3.00;;
12950;SDS011;6540;50.858;7.232;2023-02-01T09:19:08;11.93;;;3.50;;
12950;SDS011;6540;50.858;7.232;2023-02-01T09:21:34;13.27;;;3.40;;
12950;SDS011;6540;50.858;7.232;2023-02-01T09:23:59;11.53;;;3.07;;
12950;SDS011;6540;50.858;7.232;2023-02-01T09:26:24;10.67;;;3.77;;
12950;SDS011;6540;50.858;7.232;2023-02-01T09:28:50;6.90;;;3.03;;
12950;SDS011;6540;50.858;7.232;2023-02-01T09:31:16;9.80;;;3.00;;
12950;SDS011;6540;50.858;7.232;2023-02-01T09:33:41;9.70;;;3.00;;
12950;SDS011;6540;50.858;7.232;2023-02-01T09:36:06;11.20;;;3.50;;
12950;SDS011;6540;50.858;7.232;2023-02-01T09:38:32;12.23;;;3.40;;
12950;SDS011;6540;50.858;7.232;2023-02-01T09:40:58;8.33;;;3.40;;
12950;SDS011;6540;50.858;7.232;2023-02-01T09:43:46;6.27;;;2.60;;
12950;SDS011;6540;50.858;7.232;2023-02-01T09:48:45;8.27;;;2.83;;
12950;SDS011;6540;50.858;7.232;2023-02-01T09:51:14;7.70;;;2.93;;
12950;SDS011;6540;50.858;7.232;2023-02-01T09:53:44;9.17;;;3.60;;
12950;SDS011;6540;50.858;7.232;2023-02-01T09:56:23;11.23;;;3.27;;
12950;SDS011;6540;50.858;7.232;2023-02-01T10:01:24;9.90;;;3.07;;
12950;SDS011;6540;50.858;7.232;2023-02-01T10:03:53;11.47;;;3.70;;
12950;SDS011;6540;50.858;7.232;2023-02-01T10:09:32;10.67;;;2.93;;
12950;SDS011;6540;50.858;7.232;2023-02-01T10:12:25;13.20;;;3.90;;
12950;SDS011;6540;50.858;7.232;2023-02-01T10:17:45;8.23;;;2.83;;
12950;SDS011;6540;50.858;7.232;2023-02-01T10:23:33;5.40;;;3.13;;
12950;SDS011;6540;50.858;7.232;2023-02-01T10:26:36;7.73;;;3.10;;
12950;SDS011;6540;50.858;7.232;2023-02-01T10:29:12;19.10;;;3.57;;
12950;SDS011;6540;50.858;7.232;2023-02-01T10:31:42;11.97;;;3.33;;
12950;SDS011;6540;50.858;7.232;2023-02-01T10:36:50;9.97;;;3.27;;
12950;SDS011;6540;50.858;7.232;2023-02-01T10:39:20;9.53;;;2.70;;
12950;SDS011;6540;50.858;7.232;2023-02-01T10:41:46;10.20;;;3.33;;
12950;SDS011;6540;50.858;7.232;2023-02-01T10:44:13;10.93;;;3.20;;
12950;SDS011;6540;50.858;7.232;2023-02-01T10:46:41;10.60;;;3.00;;
12950;SDS011;6540;50.858;7.232;2023-02-01T10:49:19;11.10;;;2.80;;
12950;SDS011;6540;50.858;7.232;2023-02-01T10:51:52;10.27;;;3.30;;
12950;SDS011;6540;50.858;7.232;2023-02-01T10:54:32;7.03;;;2.97;;
12950;SDS011;6540;50.858;7.232;2023-02-01T10:56:59;7.23;;;2.70;;
12950;SDS011;6540;50.858;7.232;2023-02-01T10:59:25;13.43;;;4.03;;
12950;SDS011;6540;50.858;7.232;2023-02-01T11:02:15;7.70;;;2.70;;
12950;SDS011;6540;50.858;7.232;2023-02-01T11:04:45;7.73;;;3.30;;
12950;SDS011;6540;50.858;7.232;2023-02-01T11:07:22;9.37;;;3.43;;
12950;SDS011;6540;50.858;7.232;2023-02-01T11:09:50;7.57;;;3.33;;
12950;SDS011;6540;50.858;7.232;2023-02-01T11:12:36;8.60;;;3.53;;
12950;SDS011;6540;50.858;7.232;2023-02-01T11:17:34;9.03;;;3.20;;
12950;SDS011;6540;50.858;7.232;2023-02-01T11:20:03;4.77;;;2.37;;
12950;SDS011;6540;50.858;7.232;2023-02-01T11:22:34;7.47;;;3.67;;
12950;SDS011;6540;50.858;7.232;2023-02-01T11:25:07;12.17;;;3.03;;
12950;SDS011;6540;50.858;7.232;2023-02-01T11:27:34;11.83;;;2.63;;
12950;SDS011;6540;50.858;7.232;2023-02-01T11:30:00;10.80;;;3.63;;
12950;SDS011;6540;50.858;7.232;2023-02-01T11:32:27;6.07;;;2.60;;
12950;SDS011;6540;50.858;7.232;2023-02-01T11:34:54;8.43;;;3.03;;
12950;SDS011;6540;50.858;7.232;2023-02-01T11:37:30;9.60;;;3.27;;
12950;SDS011;6540;50.858;7.232;2023-02-01T11:40:00;12.57;;;3.57;;
12950;SDS011;6540;50.858;7.232;2023-02-01T11:42:28;6.70;;;3.00;;
12950;SDS011;6540;50.858;7.232;2023-02-01T11:47:44;9.97;;;3.33;;
12950;SDS011;6540;50.858;7.232;2023-02-01T11:50:15;12.30;;;3.47;;
12950;SDS011;6540;50.858;7.232;2023-02-01T12:01:33;8.40;;;3.07;;
12950;SDS011;6540;50.858;7.232;2023-02-01T12:33:31;8.40;;;3.40;;
12950;SDS011;6540;50.858;7.232;2023-02-01T12:38:44;10.07;;;3.10;;
12950;SDS011;6540;50.858;7.232;2023-02-01T12:47:14;7.80;;;2.90;;
12950;SDS011;6540;50.858;7.232;2023-02-01T12:52:46;10.43;;;2.93;;
12950;SDS011;6540;50.858;7.232;2023-02-01T12:55:24;4.40;;;2.37;;
12950;SDS011;6540;50.858;7.232;2023-02-01T12:58:21;10.40;;;3.00;;
12950;SDS011;6540;50.858;7.232;2023-02-01T13:03:34;6.33;;;2.87;;
12950;SDS011;6540;50.858;7.232;2023-02-01T13:06:12;11.03;;;2.83;;
12950;SDS011;6540;50.858;7.232;2023-02-01T13:08:47;8.43;;;2.77;;
12950;SDS011;6540;50.858;7.232;2023-02-01T13:11:20;5.83;;;3.33;;
12950;SDS011;6540;50.858;7.232;2023-02-01T13:19:16;9.73;;;3.17;;
12950;SDS011;6540;50.858;7.232;2023-02-01T13:21:46;8.63;;;2.77;;
12950;SDS011;6540;50.858;7.232;2023-02-01T13:27:33;10.73;;;2.67;;
12950;SDS011;6540;50.858;7.232;2023-02-01T13:30:06;6.80;;;3.00;;
12950;SDS011;6540;50.858;7.232;2023-02-01T13:43:30;12.70;;;3.73;;
12950;SDS011;6540;50.858;7.232;2023-02-01T13:46:04;8.27;;;2.97;;
12950;SDS011;6540;50.858;7.232;2023-02-01T13:48:45;8.47;;;2.77;;
12950;SDS011;6540;50.858;7.232;2023-02-01T13:51:14;11.00;;;2.73;;
12950;SDS011;6540;50.858;7.232;2023-02-01T13:53:44;5.67;;;2.37;;
12950;SDS011;6540;50.858;7.232;2023-02-01T13:56:13;10.90;;;2.93;;
12950;SDS011;6540;50.858;7.232;2023-02-01T13:58:42;8.53;;;3.20;;
12950;SDS011;6540;50.858;7.232;2023-02-01T14:04:03;5.43;;;2.57;;
12950;SDS011;6540;50.858;7.232;2023-02-01T14:16:41;7.40;;;2.73;;
12950;SDS011;6540;50.858;7.232;2023-02-01T14:19:07;9.77;;;3.00;;
12950;SDS011;6540;50.858;7.232;2023-02-01T14:21:48;10.80;;;2.87;;
12950;SDS011;6540;50.858;7.232;2023-02-01T14:24:33;10.73;;;3.13;;
12950;SDS011;6540;50.858;7.232;2023-02-01T14:32:07;7.30;;;2.57;;
12950;SDS011;6540;50.858;7.232;2023-02-01T14:47:52;4.93;;;2.37;;
12950;SDS011;6540;50.858;7.232;2023-02-01T14:58:15;4.40;;;2.97;;
12950;SDS011;6540;50.858;7.232;2023-02-01T15:00:54;9.90;;;2.40;;
12950;SDS011;6540;50.858;7.232;2023-02-01T15:06:12;9.87;;;2.77;;
12950;SDS011;6540;50.858;7.232;2023-02-01T15:08:46;5.33;;;2.33;;
12950;SDS011;6540;50.858;7.232;2023-02-01T15:11:14;8.87;;;2.63;;
12950;SDS011;6540;50.858;7.232;2023-02-01T15:13:40;2.80;;;2.43;;
12950;SDS011;6540;50.858;7.232;2023-02-01T15:16:13;7.80;;;2.37;;
12950;SDS011;6540;50.858;7.232;2023-02-01T15:18:39;10.93;;;3.30;;
12950;SDS011;6540;50.858;7.232;2023-02-01T15:21:06;6.27;;;3.03;;
12950;SDS011;6540;50.858;7.232;2023-02-01T15:23:40;9.60;;;2.80;;
12950;SDS011;6540;50.858;7.232;2023-02-01T15:26:05;13.30;;;2.80;;
12950;SDS011;6540;50.858;7.232;2023-02-01T15:28:31;2.97;;;1.80;;
12950;SDS011;6540;50.858;7.232;2023-02-01T15:30:57;7.50;;;2.70;;
12950;SDS011;6540;50.858;7.232;2023-02-01T15:33:26;8.50;;;2.33;;
12950;SDS011;6540;50.858;7.232;2023-02-01T15:36:06;5.10;;;2.10;;
12950;SDS011;6540;50.858;7.232;2023-02-01T15:38:40;8.47;;;2.80;;
12950;SDS011;6540;50.858;7.232;2023-02-01T15:43:42;8.47;;;2.50;;
12950;SDS011;6540;50.858;7.232;2023-02-01T15:46:30;7.47;;;2.77;;
12950;SDS011;6540;50.858;7.232;2023-02-01T15:51:48;4.67;;;2.93;;
12950;SDS011;6540;50.858;7.232;2023-02-01T15:54:18;11.87;;;2.73;;
12950;SDS011;6540;50.858;7.232;2023-02-01T15:56:51;6.10;;;2.23;;
12950;SDS011;6540;50.858;7.232;2023-02-01T15:59:20;9.63;;;2.63;;
12950;SDS011;6540;50.858;7.232;2023-02-01T16:01:49;9.30;;;2.47;;
12950;SDS011;6540;50.858;7.232;2023-02-01T16:04:26;7.30;;;2.70;;
12950;SDS011;6540;50.858;7.232;2023-02-01T16:07:01;6.00;;;2.57;;
12950;SDS011;6540;50.858;7.232;2023-02-01T16:09:50;8.03;;;3.47;;
12950;SDS011;6540;50.858;7.232;2023-02-01T16:13:01;5.40;;;2.77;;
12950;SDS011;6540;50.858;7.232;2023-02-01T16:15:07;5.40;;;2.30;;
12950;SDS011;6540;50.858;7.232;2023-02-01T16:17:33;7.27;;;2.83;;
12950;SDS011;6540;50.858;7.232;2023-02-01T16:19:58;6.47;;;2.80;;
12950;SDS011;6540;50.858;7.232;2023-02-01T16:22:24;4.93;;;2.30;;
12950;SDS011;6540;50.858;7.232;2023-02-01T16:24:50;11.13;;;3.00;;
12950;SDS011;6540;50.858;7.232;2023-02-01T16:27:15;7.43;;;2.73;;
12950;SDS011;6540;50.858;7.232;2023-02-01T16:29:41;5.47;;;2.33;;
12950;SDS011;6540;50.858;7.232;2023-02-01T16:32:10;5.87;;;2.57;;
12950;SDS011;6540;50.858;7.232;2023-02-01T16:34:41;6.43;;;2.63;;
12950;SDS011;6540;50.858;7.232;2023-02-01T16:37:09;6.40;;;2.50;;
12950;SDS011;6540;50.858;7.232;2023-02-01T16:39:37;8.80;;;2.77;;
12950;SDS011;6540;50.858;7.232;2023-02-01T16:42:08;5.13;;;2.07;;
12950;SDS011;6540;50.858;7.232;2023-02-01T16:44:35;10.67;;;3.50;;
12950;SDS011;6540;50.858;7.232;2023-02-01T16:47:01;7.43;;;2.93;;
12950;SDS011;6540;50.858;7.232;2023-02-01T16:49:26;12.87;;;3.40;;
12950;SDS011;6540;50.858;7.232;2023-02-01T16:51:52;7.53;;;2.70;;
12950;SDS011;6540;50.858;7.232;2023-02-01T16:54:22;10.30;;;4.13;;
12950;SDS011;6540;50.858;7.232;2023-02-01T16:56:48;6.43;;;3.27;;
12950;SDS011;6540;50.858;7.232;2023-02-01T16:59:14;4.07;;;2.10;;
12950;SDS011;6540;50.858;7.232;2023-02-01T17:01:40;7.67;;;3.03;;
12950;SDS011;6540;50.858;7.232;2023-02-01T17:04:07;6.13;;;3.00;;
12950;SDS011;6540;50.858;7.232;2023-02-01T17:06:33;9.60;;;3.07;;
12950;SDS011;6540;50.858;7.232;2023-02-01T17:09:04;5.80;;;2.93;;
12950;SDS011;6540;50.858;7.232;2023-02-01T17:11:30;5.47;;;3.07;;
12950;SDS011;6540;50.858;7.232;2023-02-01T17:13:56;9.47;;;3.63;;
12950;SDS011;6540;50.858;7.232;2023-02-01T17:16:27;7.67;;;2.90;;
12950;SDS011;6540;50.858;7.232;2023-02-01T17:19:05;6.00;;;2.67;;
12950;SDS011;6540;50.858;7.232;2023-02-01T17:21:42;6.53;;;2.53;;
12950;SDS011;6540;50.858;7.232;2023-02-01T17:24:14;7.77;;;2.90;;
12950;SDS011;6540;50.858;7.232;2023-02-01T17:26:41;7.93;;;3.23;;
12950;SDS011;6540;50.858;7.232;2023-02-01T17:29:07;6.53;;;2.63;;
12950;SDS011;6540;50.858;7.232;2023-02-01T17:31:33;7.37;;;3.27;;
12950;SDS011;6540;50.858;7.232;2023-02-01T17:34:02;4.83;;;3.07;;
12950;SDS011;6540;50.858;7.232;2023-02-01T17:36:27;6.33;;;3.23;;
12950;SDS011;6540;50.858;7.232;2023-02-01T17:38:53;6.70;;;2.87;;
12950;SDS011;6540;50.858;7.232;2023-02-01T17:41:18;10.57;;;3.30;;
12950;SDS011;6540;50.858;7.232;2023-02-01T17:43:43;9.97;;;3.67;;
12950;SDS011;6540;50.858;7.232;2023-02-01T17:46:13;10.30;;;3.63;;
12950;SDS011;6540;50.858;7.232;2023-02-01T17:48:40;8.83;;;3.00;;
12950;SDS011;6540;50.858;7.232;2023-02-01T17:51:12;9.83;;;2.67;;
12950;SDS011;6540;50.858;7.232;2023-02-01T17:53:42;12.90;;;3.63;;
12950;SDS011;6540;50.858;7.232;2023-02-01T17:56:17;9.00;;;3.13;;
12950;SDS011;6540;50.858;7.232;2023-02-01T17:58:44;9.03;;;4.03;;
12950;SDS011;6540;50.858;7.232;2023-02-01T18:01:14;9.87;;;4.37;;
12950;SDS011;6540;50.858;7.232;2023-02-01T18:03:42;14.63;;;4.33;;
12950;SDS011;6540;50.858;7.232;2023-02-01T18:06:12;6.00;;;3.43;;
12950;SDS011;6540;50.858;7.232;2023-02-01T18:08:57;12.03;;;4.00;;
12950;SDS011;6540;50.858;7.232;2023-02-01T18:11:23;11.67;;;4.07;;